Time;durP1;ratioP1;P1;durP2;ratioP2;P2;SDS_P1;SDS_P2;PMS_P1;PMS_P2;Temp;Humidity;BMP_temperature;BMP_pressure;BME280_temperature;BME280_humidity;BME280_pressure;Samples;Min_cycle;Max_cycle;Signal;HPM_P1;HPM_P2
2021/08/20 00:00:08;;;;;;;2.60;2.40;;;;;;;;;;5094239;28;20185;-45
2021/08/20 00:02:35;;;;;;;2.60;2.40;;;;;;;;;;5083136;28;20300;-45
2021/08/20 00:05:01;;;;;;;2.72;2.17;;;;;;;;;;5093381;28;20613;-45
2021/08/20 00:07:27;;;;;;;3.60;2.50;;;;;;;;;;5095472;28;20249;-45
2021/08/20 00:09:54;;;;;;;2.90;2.10;;;;;;;;;;5063141;28;20210;-45
2021/08/20 00:12:20;;;;;;;2.30;2.10;;;;;;;;;;5090304;28;20186;-45
2021/08/20 00:14:46;;;;;;;3.58;2.10;;;;;;;;;;5081417;28;20174;-45
2021/08/20 00:17:13;;;;;;;2.50;2.30;;;;;;;;;;5075938;28;20178;-45
2021/08/20 00:19:39;;;;;;;3.08;2.10;;;;;;;;;;5087683;28;20216;-45
2021/08/20 00:22:05;;;;;;;3.38;2.25;;;;;;;;;;5076141;28;20208;-45
2021/08/20 00:24:32;;;;;;;1.98;1.88;;;;;;;;;;5087440;28;20738;-45
2021/08/20 00:26:58;;;;;;;3.20;1.92;;;;;;;;;;5079492;28;20612;-45
2021/08/20 00:29:24;;;;;;;2.35;2.17;;;;;;;;;;5080918;28;20288;-45
2021/08/20 00:31:49;;;;;;;2.08;1.98;;;;;;;;;;5095229;28;20459;-45
2021/08/20 00:34:16;;;;;;;2.20;2.10;;;;;;;;;;5083449;28;20179;-45
2021/08/20 00:36:42;;;;;;;2.50;2.30;;;;;;;;;;5094878;28;20177;-45
2021/08/20 00:39:07;;;;;;;2.33;2.20;;;;;;;;;;5081760;28;20189;-45
2021/08/20 00:41:34;;;;;;;2.97;2.67;;;;;;;;;;5087346;28;20216;-45
2021/08/20 00:44:00;;;;;;;2.42;2.20;;;;;;;;;;5079608;28;20179;-45
2021/08/20 00:46:27;;;;;;;3.63;2.30;;;;;;;;;;5075503;28;20171;-45
2021/08/20 00:48:53;;;;;;;2.50;2.30;;;;;;;;;;5082938;28;20198;-45
2021/08/20 00:51:24;;;;;;;19.08;4.93;;;;;;;;;;5091727;28;20185;-45
2021/08/20 00:53:51;;;;;;;86.03;19.80;;;;;;;;;;5079768;28;20213;-45
2021/08/20 00:56:17;;;;;;;45.35;10.85;;;;;;;;;;5086039;28;20189;-45
2021/08/20 00:58:43;;;;;;;46.40;11.82;;;;;;;;;;5086243;28;20219;-45
2021/08/20 01:01:09;;;;;;;65.75;18.48;;;;;;;;;;5081477;28;20251;-45
2021/08/20 01:03:36;;;;;;;63.08;15.57;;;;;;;;;;5092092;28;20186;-45
2021/08/20 01:06:03;;;;;;;60.58;16.50;;;;;;;;;;5089144;28;20181;-45
2021/08/20 01:08:31;;;;;;;48.25;14.30;;;;;;;;;;5094044;28;20185;-45
2021/08/20 01:10:58;;;;;;;56.25;13.73;;;;;;;;;;5093467;28;20188;-45
2021/08/20 01:13:24;;;;;;;37.10;12.23;;;;;;;;;;5093940;28;20555;-45
2021/08/20 01:15:53;;;;;;;42.15;10.88;;;;;;;;;;5094322;28;20284;-45
2021/08/20 01:18:22;;;;;;;30.23;11.05;;;;;;;;;;5090055;28;20602;-45
2021/08/20 01:20:49;;;;;;;31.92;10.40;;;;;;;;;;5075102;28;20175;-45
2021/08/20 01:23:16;;;;;;;35.40;10.35;;;;;;;;;;5075115;28;20680;-45
2021/08/20 01:25:42;;;;;;;31.10;9.30;;;;;;;;;;5079872;28;20774;-45
2021/08/20 01:28:08;;;;;;;32.38;9.63;;;;;;;;;;5090676;28;20604;-45
2021/08/20 01:30:35;;;;;;;25.60;9.40;;;;;;;;;;5094846;28;20308;-45
2021/08/20 01:33:01;;;;;;;20.08;8.45;;;;;;;;;;5079616;28;20186;-45
2021/08/20 01:35:27;;;;;;;31.10;9.30;;;;;;;;;;5085604;28;20178;-45
2021/08/20 01:37:53;;;;;;;26.80;8.90;;;;;;;;;;5074621;28;20482;-45
2021/08/20 01:40:19;;;;;;;28.42;9.05;;;;;;;;;;5090924;28;20220;-45
2021/08/20 01:42:45;;;;;;;27.10;8.65;;;;;;;;;;5079621;28;20253;-45
2021/08/20 01:45:11;;;;;;;20.73;8.07;;;;;;;;;;5075477;28;20561;-45
2021/08/20 01:47:38;;;;;;;19.83;7.75;;;;;;;;;;5085087;28;20882;-45
2021/08/20 01:50:05;;;;;;;20.73;7.57;;;;;;;;;;5085636;28;20210;-45
2021/08/20 01:52:31;;;;;;;16.27;6.72;;;;;;;;;;5074677;28;20194;-45
2021/08/20 01:54:56;;;;;;;16.23;6.60;;;;;;;;;;5074341;28;20279;-45
2021/08/20 01:57:22;;;;;;;19.77;7.72;;;;;;;;;;5092071;28;20209;-45
2021/08/20 01:59:48;;;;;;;17.77;6.80;;;;;;;;;;5094452;28;20215;-45
2021/08/20 02:02:15;;;;;;;16.52;6.10;;;;;;;;;;5090603;28;20193;-45
2021/08/20 02:04:41;;;;;;;20.13;6.68;;;;;;;;;;5086050;28;20174;-45
2021/08/20 02:07:07;;;;;;;19.15;6.90;;;;;;;;;;5087546;28;20182;-45
2021/08/20 02:09:33;;;;;;;18.15;6.78;;;;;;;;;;5084204;28;20248;-45
2021/08/20 02:11:59;;;;;;;14.63;5.90;;;;;;;;;;5074549;28;20170;-45
2021/08/20 02:14:25;;;;;;;19.60;6.35;;;;;;;;;;5081312;28;20668;-45
2021/08/20 02:16:51;;;;;;;15.10;6.45;;;;;;;;;;5094342;28;20193;-45
2021/08/20 02:19:16;;;;;;;16.73;6.82;;;;;;;;;;5088526;28;20181;-45
2021/08/20 02:21:43;;;;;;;14.18;5.50;;;;;;;;;;5074354;28;20178;-45
2021/08/20 02:24:09;;;;;;;12.98;5.60;;;;;;;;;;5078238;28;20220;-45
2021/08/20 02:26:35;;;;;;;14.82;5.90;;;;;;;;;;5093568;28;21804;-45
2021/08/20 02:29:01;;;;;;;12.50;5.38;;;;;;;;;;5083821;28;20244;-45
2021/08/20 02:31:27;;;;;;;13.55;6.40;;;;;;;;;;5074193;28;20550;-45
2021/08/20 02:33:53;;;;;;;12.60;5.18;;;;;;;;;;5088188;28;20227;-45
2021/08/20 02:36:19;;;;;;;11.23;4.53;;;;;;;;;;5094361;28;20185;-45
2021/08/20 02:38:45;;;;;;;8.95;4.90;;;;;;;;;;5092756;28;20185;-45
2021/08/20 02:41:11;;;;;;;12.07;5.07;;;;;;;;;;5092669;28;20166;-45
2021/08/20 02:43:37;;;;;;;10.63;5.18;;;;;;;;;;5086181;28;20185;-45
2021/08/20 02:46:03;;;;;;;12.05;5.80;;;;;;;;;;5093679;28;20231;-45
2021/08/20 02:48:29;;;;;;;7.30;4.88;;;;;;;;;;5082306;28;20553;-45
2021/08/20 02:50:55;;;;;;;8.77;4.53;;;;;;;;;;5080565;28;20181;-45
2021/08/20 02:53:22;;;;;;;12.30;5.28;;;;;;;;;;5074958;28;20179;-45
2021/08/20 02:55:48;;;;;;;8.70;4.68;;;;;;;;;;5098086;28;20201;-45
2021/08/20 02:58:14;;;;;;;9.95;5.03;;;;;;;;;;5096334;28;20584;-45
2021/08/20 03:00:40;;;;;;;8.23;4.72;;;;;;;;;;5097827;28;20162;-45
2021/08/20 03:03:06;;;;;;;9.63;4.20;;;;;;;;;;5092415;28;20637;-45
2021/08/20 03:05:32;;;;;;;8.05;4.38;;;;;;;;;;5087686;28;20572;-45
2021/08/20 03:07:58;;;;;;;11.45;4.95;;;;;;;;;;5076694;28;20178;-45
2021/08/20 03:10:24;;;;;;;10.00;4.45;;;;;;;;;;5077415;28;20245;-45
2021/08/20 03:12:50;;;;;;;7.75;4.90;;;;;;;;;;5083423;28;20219;-45
2021/08/20 03:15:16;;;;;;;8.43;4.78;;;;;;;;;;5097641;28;20178;-45
2021/08/20 03:17:42;;;;;;;8.43;4.05;;;;;;;;;;5088996;28;20721;-45
2021/08/20 03:20:09;;;;;;;10.07;4.30;;;;;;;;;;5097638;28;20178;-45
2021/08/20 03:22:35;;;;;;;8.80;4.20;;;;;;;;;;5096353;28;20191;-45
2021/08/20 03:25:01;;;;;;;5.63;4.13;;;;;;;;;;5097711;28;20173;-45
2021/08/20 03:27:27;;;;;;;6.68;4.28;;;;;;;;;;5095893;28;20216;-45
2021/08/20 03:29:53;;;;;;;6.57;3.70;;;;;;;;;;5097187;28;20221;-45
2021/08/20 03:32:19;;;;;;;8.27;4.20;;;;;;;;;;5096308;28;20170;-45
2021/08/20 03:34:45;;;;;;;8.82;4.47;;;;;;;;;;5095440;28;20223;-45
2021/08/20 03:37:11;;;;;;;7.15;4.50;;;;;;;;;;5096398;28;20453;-45
2021/08/20 03:39:37;;;;;;;6.75;3.83;;;;;;;;;;5097126;28;20166;-45
2021/08/20 03:42:03;;;;;;;8.25;3.88;;;;;;;;;;5096144;28;20190;-45
2021/08/20 03:44:29;;;;;;;8.35;4.13;;;;;;;;;;5097263;28;20180;-45
2021/08/20 03:46:55;;;;;;;6.07;3.92;;;;;;;;;;5096435;28;20553;-45
2021/08/20 03:49:21;;;;;;;5.85;3.70;;;;;;;;;;5093653;28;20251;-45
2021/08/20 03:51:47;;;;;;;6.72;3.72;;;;;;;;;;5096156;28;20264;-45
2021/08/20 03:54:14;;;;;;;6.45;3.78;;;;;;;;;;5097129;28;20177;-45
2021/08/20 03:56:40;;;;;;;5.32;4.03;;;;;;;;;;5096565;28;20476;-45
2021/08/20 03:59:06;;;;;;;6.10;3.70;;;;;;;;;;5094310;28;20185;-45
2021/08/20 04:01:32;;;;;;;5.55;3.85;;;;;;;;;;5096848;28;20207;-45
2021/08/20 04:03:58;;;;;;;4.97;3.83;;;;;;;;;;5087495;28;20214;-45
2021/08/20 04:06:24;;;;;;;4.65;3.20;;;;;;;;;;5076320;28;20186;-45
2021/08/20 04:08:50;;;;;;;3.90;3.22;;;;;;;;;;5075953;28;20194;-45
2021/08/20 04:11:16;;;;;;;3.50;3.08;;;;;;;;;;5094580;28;20616;-45
2021/08/20 04:13:42;;;;;;;6.22;3.67;;;;;;;;;;5077348;28;20177;-45
2021/08/20 04:16:09;;;;;;;6.25;4.07;;;;;;;;;;5077342;28;20224;-45
2021/08/20 04:18:37;;;;;;;5.40;3.83;;;;;;;;;;5085155;28;20201;-45
2021/08/20 04:21:03;;;;;;;3.67;3.30;;;;;;;;;;5092612;28;20701;-45
2021/08/20 04:23:29;;;;;;;4.60;3.60;;;;;;;;;;5076362;28;20249;-45
2021/08/20 04:25:55;;;;;;;3.75;3.08;;;;;;;;;;5087206;28;20169;-45
2021/08/20 04:28:21;;;;;;;5.90;3.45;;;;;;;;;;5095205;28;20225;-45
2021/08/20 04:30:47;;;;;;;5.38;3.63;;;;;;;;;;5095787;28;20197;-45
2021/08/20 04:33:13;;;;;;;3.40;3.10;;;;;;;;;;5091826;28;20553;-45
2021/08/20 04:35:39;;;;;;;4.05;3.65;;;;;;;;;;5087842;28;20235;-45
2021/08/20 04:38:05;;;;;;;5.32;3.58;;;;;;;;;;5095716;28;20181;-45
2021/08/20 04:40:31;;;;;;;4.25;3.30;;;;;;;;;;5095264;28;20327;-45
2021/08/20 04:42:57;;;;;;;4.30;3.05;;;;;;;;;;5079628;28;20236;-45
2021/08/20 04:45:23;;;;;;;3.63;3.30;;;;;;;;;;5076103;28;20249;-45
2021/08/20 04:47:49;;;;;;;4.18;3.55;;;;;;;;;;5083197;28;20178;-45
2021/08/20 04:50:16;;;;;;;3.60;3.30;;;;;;;;;;5077883;28;20262;-45
2021/08/20 04:52:42;;;;;;;3.83;3.40;;;;;;;;;;5075788;28;20178;-45
2021/08/20 04:55:08;;;;;;;3.72;3.42;;;;;;;;;;5075687;28;20534;-45
2021/08/20 04:57:34;;;;;;;4.93;3.40;;;;;;;;;;5075313;28;20441;-45
2021/08/20 05:00:00;;;;;;;4.15;3.28;;;;;;;;;;5095271;28;20180;-45
2021/08/20 05:02:30;;;;;;;3.70;3.05;;;;;;;;;;5089795;28;20174;-45
2021/08/20 05:04:56;;;;;;;4.13;3.40;;;;;;;;;;5086368;28;20177;-45
2021/08/20 05:07:22;;;;;;;3.90;3.50;;;;;;;;;;5115352;28;20173;-45
2021/08/20 05:10:09;;;;;;;4.07;3.67;;;;;;;;;;5091739;28;20531;-45
2021/08/20 05:12:36;;;;;;;4.32;3.17;;;;;;;;;;5095219;28;20166;-45
2021/08/20 05:15:02;;;;;;;4.00;3.60;;;;;;;;;;5093762;28;20490;-45
2021/08/20 05:17:28;;;;;;;3.30;3.00;;;;;;;;;;5083787;28;20170;-45
2021/08/20 05:19:54;;;;;;;4.72;3.60;;;;;;;;;;5089867;28;20181;-45
2021/08/20 05:22:20;;;;;;;4.75;3.35;;;;;;;;;;5090676;28;20227;-45
2021/08/20 05:24:46;;;;;;;4.90;3.53;;;;;;;;;;5093123;28;20177;-45
2021/08/20 05:27:12;;;;;;;4.15;3.50;;;;;;;;;;5093041;28;20443;-45
2021/08/20 05:29:38;;;;;;;5.32;4.00;;;;;;;;;;5078909;28;20227;-45
2021/08/20 05:32:04;;;;;;;3.40;3.10;;;;;;;;;;5073945;28;20223;-45
2021/08/20 05:34:30;;;;;;;3.83;3.10;;;;;;;;;;5074066;28;20212;-46
2021/08/20 05:36:57;;;;;;;3.47;3.15;;;;;;;;;;5080952;28;20550;-45
2021/08/20 05:39:22;;;;;;;3.20;2.90;;;;;;;;;;5094855;28;20215;-45
2021/08/20 05:41:48;;;;;;;3.15;2.67;;;;;;;;;;5083779;28;20187;-45
2021/08/20 05:44:14;;;;;;;4.63;3.58;;;;;;;;;;5074558;28;20191;-45
2021/08/20 05:46:40;;;;;;;5.28;3.13;;;;;;;;;;5086432;28;20188;-45
2021/08/20 05:49:07;;;;;;;5.20;4.05;;;;;;;;;;5094051;28;20226;-45
2021/08/20 05:51:33;;;;;;;4.78;3.90;;;;;;;;;;5094642;28;20184;-45
2021/08/20 05:53:59;;;;;;;5.38;3.90;;;;;;;;;;5087738;28;20177;-45
2021/08/20 05:56:25;;;;;;;8.85;4.85;;;;;;;;;;5077690;28;20278;-45
2021/08/20 05:58:52;;;;;;;6.32;4.20;;;;;;;;;;5081576;28;20249;-45
2021/08/20 06:01:18;;;;;;;7.47;4.38;;;;;;;;;;5078199;28;21113;-45
2021/08/20 06:03:44;;;;;;;6.82;3.70;;;;;;;;;;5079992;28;20284;-45
2021/08/20 06:06:16;;;;;;;6.57;3.45;;;;;;;;;;5083288;28;20266;-45
2021/08/20 06:08:42;;;;;;;5.30;3.90;;;;;;;;;;5094068;28;20177;-45
2021/08/20 06:11:09;;;;;;;4.82;3.63;;;;;;;;;;5076950;28;20919;-45
2021/08/20 06:13:35;;;;;;;4.43;3.53;;;;;;;;;;5072873;28;20193;-45
2021/08/20 06:16:01;;;;;;;7.18;3.67;;;;;;;;;;5072916;28;20186;-45
2021/08/20 06:18:27;;;;;;;5.10;3.78;;;;;;;;;;5085150;28;20171;-45
2021/08/20 06:20:53;;;;;;;4.80;3.70;;;;;;;;;;5081295;28;20184;-45
2021/08/20 06:23:19;;;;;;;5.68;3.83;;;;;;;;;;5092703;28;20182;-45
2021/08/20 06:25:45;;;;;;;4.45;3.75;;;;;;;;;;5080726;28;20185;-45
2021/08/20 06:28:11;;;;;;;4.82;3.78;;;;;;;;;;5078376;28;20269;-45
2021/08/20 06:30:44;;;;;;;5.85;3.60;;;;;;;;;;5088110;28;20209;-45
2021/08/20 06:33:10;;;;;;;5.45;3.38;;;;;;;;;;5089583;28;20183;-45
2021/08/20 06:35:36;;;;;;;3.97;3.47;;;;;;;;;;5089542;28;20186;-45
2021/08/20 06:38:02;;;;;;;4.10;3.60;;;;;;;;;;5077185;28;20223;-45
2021/08/20 06:40:28;;;;;;;3.47;3.17;;;;;;;;;;5084848;28;20483;-45
2021/08/20 06:42:54;;;;;;;3.10;2.80;;;;;;;;;;5079257;28;20183;-45
2021/08/20 06:45:20;;;;;;;4.22;3.40;;;;;;;;;;5078560;28;20466;-45
2021/08/20 06:47:46;;;;;;;4.30;3.90;;;;;;;;;;5077421;28;20530;-45
2021/08/20 06:50:11;;;;;;;4.68;3.33;;;;;;;;;;5083748;28;20213;-45
2021/08/20 06:52:38;;;;;;;3.95;3.60;;;;;;;;;;5080569;28;20174;-45
2021/08/20 06:55:04;;;;;;;6.55;4.18;;;;;;;;;;5098004;28;20447;-45
2021/08/20 06:57:30;;;;;;;4.60;4.20;;;;;;;;;;5097780;28;20184;-45
2021/08/20 06:59:57;;;;;;;6.38;3.70;;;;;;;;;;5094307;28;20182;-45
2021/08/20 07:02:23;;;;;;;4.03;3.38;;;;;;;;;;5077441;28;20185;-45
2021/08/20 07:04:50;;;;;;;4.25;3.53;;;;;;;;;;5077960;28;20171;-44
2021/08/20 07:07:16;;;;;;;4.93;3.65;;;;;;;;;;5077306;28;20248;-44
2021/08/20 07:09:42;;;;;;;5.50;4.03;;;;;;;;;;5078451;28;20233;-44
2021/08/20 07:12:08;;;;;;;3.83;3.45;;;;;;;;;;5097857;28;20197;-45
2021/08/20 07:14:34;;;;;;;3.80;3.38;;;;;;;;;;5097829;28;20211;-45
2021/08/20 07:17:00;;;;;;;3.92;3.05;;;;;;;;;;5097417;28;20775;-45
2021/08/20 07:19:26;;;;;;;3.25;2.95;;;;;;;;;;5097718;28;20165;-45
2021/08/20 07:21:52;;;;;;;3.75;3.35;;;;;;;;;;5078657;28;20500;-45
2021/08/20 07:24:18;;;;;;;3.20;2.90;;;;;;;;;;5077128;28;20182;-45
2021/08/20 07:26:44;;;;;;;3.92;3.03;;;;;;;;;;5077246;28;20519;-45
2021/08/20 07:29:10;;;;;;;3.17;2.85;;;;;;;;;;5085952;28;20206;-45
2021/08/20 07:31:36;;;;;;;3.13;2.83;;;;;;;;;;5097606;28;20469;-45
2021/08/20 07:34:03;;;;;;;3.85;3.17;;;;;;;;;;5097590;28;20184;-45
2021/08/20 07:36:29;;;;;;;5.72;3.45;;;;;;;;;;5097430;28;20178;-45
2021/08/20 07:38:55;;;;;;;4.80;3.28;;;;;;;;;;5092608;28;20899;-45
2021/08/20 07:41:21;;;;;;;4.40;3.15;;;;;;;;;;5085964;28;20558;-45
2021/08/20 07:43:47;;;;;;;6.03;3.88;;;;;;;;;;5077143;28;20166;-45
2021/08/20 07:46:13;;;;;;;5.88;3.85;;;;;;;;;;5077177;28;20162;-45
2021/08/20 07:48:39;;;;;;;4.32;3.30;;;;;;;;;;5080667;28;20166;-45
2021/08/20 07:51:05;;;;;;;4.70;4.00;;;;;;;;;;5097110;28;20249;-45
2021/08/20 07:53:31;;;;;;;3.80;3.40;;;;;;;;;;5096178;28;20476;-45
2021/08/20 07:55:58;;;;;;;5.47;3.83;;;;;;;;;;5096428;28;20178;-45
2021/08/20 07:58:24;;;;;;;4.00;3.58;;;;;;;;;;5091297;28;20210;-45
2021/08/20 08:00:49;;;;;;;4.88;3.47;;;;;;;;;;5085929;28;20450;-45
2021/08/20 08:03:15;;;;;;;4.05;3.65;;;;;;;;;;5094712;28;20197;-45
2021/08/20 08:05:42;;;;;;;4.10;3.47;;;;;;;;;;5089626;28;20178;-45
2021/08/20 08:08:08;;;;;;;4.85;3.35;;;;;;;;;;5088584;28;20178;-45
2021/08/20 08:10:34;;;;;;;3.85;3.28;;;;;;;;;;5093741;28;20235;-44
2021/08/20 08:12:59;;;;;;;4.00;3.60;;;;;;;;;;5083741;28;20174;-45
2021/08/20 08:15:25;;;;;;;2.83;2.63;;;;;;;;;;5091987;28;20174;-45
2021/08/20 08:17:51;;;;;;;3.42;3.13;;;;;;;;;;5087463;28;20187;-45
2021/08/20 08:20:18;;;;;;;4.88;3.08;;;;;;;;;;5076432;28;20178;-45
2021/08/20 08:22:45;;;;;;;3.13;2.83;;;;;;;;;;5085597;28;20174;-45
2021/08/20 08:25:11;;;;;;;4.25;2.97;;;;;;;;;;5095077;28;20188;-45
2021/08/20 08:27:54;;;;;;;4.03;2.67;;;;;;;;;;5090886;28;20185;-45
2021/08/20 08:30:21;;;;;;;3.75;2.60;;;;;;;;;;5099390;28;20614;-45
2021/08/20 08:32:46;;;;;;;3.30;3.00;;;;;;;;;;5117313;28;20184;-45
2021/08/20 08:35:13;;;;;;;3.10;2.85;;;;;;;;;;5080154;28;20166;-45
2021/08/20 08:37:39;;;;;;;5.68;3.00;;;;;;;;;;5093545;28;20216;-45
2021/08/20 08:40:05;;;;;;;3.95;3.10;;;;;;;;;;5096110;28;20223;-45
2021/08/20 08:42:31;;;;;;;3.35;3.05;;;;;;;;;;5084009;28;20492;-45
2021/08/20 08:44:57;;;;;;;6.00;3.20;;;;;;;;;;5087162;28;20179;-45
2021/08/20 08:47:23;;;;;;;3.88;3.22;;;;;;;;;;5091269;28;20217;-45
2021/08/20 08:49:49;;;;;;;4.47;3.30;;;;;;;;;;5075205;28;20206;-45
2021/08/20 08:52:15;;;;;;;4.78;3.20;;;;;;;;;;5075823;28;20163;-45
2021/08/20 08:54:42;;;;;;;3.35;3.05;;;;;;;;;;5075948;28;20178;-45
2021/08/20 08:57:08;;;;;;;4.07;3.67;;;;;;;;;;5086053;28;20178;-45
2021/08/20 08:59:34;;;;;;;4.55;3.65;;;;;;;;;;5095183;28;20173;-45
2021/08/20 09:02:18;;;;;;;6.22;3.30;;;;;;;;;;5081409;28;20193;-45
2021/08/20 09:04:53;;;;;;;3.63;3.33;;;;;;;;;;5075484;28;20564;-45
2021/08/20 09:07:19;;;;;;;4.72;3.40;;;;;;;;;;5092314;28;20208;-45
2021/08/20 09:09:45;;;;;;;3.45;3.15;;;;;;;;;;5095365;28;20193;-45
2021/08/20 09:12:11;;;;;;;2.70;2.50;;;;;;;;;;5080448;28;20181;-45
2021/08/20 09:14:37;;;;;;;4.15;2.78;;;;;;;;;;5089222;28;20211;-45
2021/08/20 09:17:04;;;;;;;3.13;2.70;;;;;;;;;;5074813;28;20185;-44
2021/08/20 09:19:30;;;;;;;2.65;2.45;;;;;;;;;;5075005;28;20198;-44
2021/08/20 09:21:57;;;;;;;4.07;2.70;;;;;;;;;;5075008;28;20414;-44
2021/08/20 09:24:35;;;;;;;2.97;2.67;;;;;;;;;;5075716;28;20439;-44
2021/08/20 09:27:14;;;;;;;4.45;2.63;;;;;;;;;;5084274;28;20257;-45
2021/08/20 09:30:07;;;;;;;3.50;2.75;;;;;;;;;;5077343;28;20687;-45
2021/08/20 09:32:33;;;;;;;4.38;2.90;;;;;;;;;;5079162;28;20219;-45
2021/08/20 09:34:59;;;;;;;4.57;2.50;;;;;;;;;;5075924;28;20178;-45
2021/08/20 09:37:26;;;;;;;5.50;2.53;;;;;;;;;;5092792;28;20177;-45
2021/08/20 09:39:58;;;;;;;6.43;2.78;;;;;;;;;;5094103;28;20250;-45
2021/08/20 09:42:24;;;;;;;5.97;3.08;;;;;;;;;;5087058;28;20177;-45
2021/08/20 09:45:09;;;;;;;2.53;2.33;;;;;;;;;;5090859;28;20183;-45
2021/08/20 09:47:40;;;;;;;2.97;2.67;;;;;;;;;;5090840;28;20185;-45
2021/08/20 09:50:06;;;;;;;2.95;2.70;;;;;;;;;;5094569;28;20512;-45
2021/08/20 09:52:32;;;;;;;3.15;2.85;;;;;;;;;;5094159;28;20170;-45
2021/08/20 09:54:58;;;;;;;2.90;2.67;;;;;;;;;;5094550;28;20829;-45
2021/08/20 09:57:26;;;;;;;3.70;3.33;;;;;;;;;;5083597;28;20182;-45
2021/08/20 09:59:54;;;;;;;3.33;2.95;;;;;;;;;;5079471;28;20219;-45
2021/08/20 10:02:21;;;;;;;3.33;2.53;;;;;;;;;;5080957;28;20615;-45
2021/08/20 10:04:47;;;;;;;3.25;2.95;;;;;;;;;;5075530;28;20204;-45
2021/08/20 10:07:17;;;;;;;3.70;2.60;;;;;;;;;;5092568;28;20193;-45
2021/08/20 10:09:45;;;;;;;3.15;2.30;;;;;;;;;;5094741;28;20284;-45
2021/08/20 10:12:12;;;;;;;3.17;2.85;;;;;;;;;;5092211;28;20177;-45
2021/08/20 10:14:38;;;;;;;3.20;2.90;;;;;;;;;;5090407;28;20175;-45
2021/08/20 10:17:05;;;;;;;3.72;3.03;;;;;;;;;;5084919;28;20170;-45
2021/08/20 10:19:31;;;;;;;4.53;3.08;;;;;;;;;;5085845;28;20186;-45
2021/08/20 10:21:57;;;;;;;4.55;3.30;;;;;;;;;;5087292;28;20177;-45
2021/08/20 10:24:23;;;;;;;3.67;3.38;;;;;;;;;;5074685;28;20205;-45
2021/08/20 10:26:54;;;;;;;3.40;3.10;;;;;;;;;;5079615;28;20717;-45
2021/08/20 10:29:22;;;;;;;3.28;2.60;;;;;;;;;;5075261;28;20205;-45
2021/08/20 10:31:49;;;;;;;3.33;3.03;;;;;;;;;;5085341;28;20166;-45
2021/08/20 10:34:30;;;;;;;3.28;2.97;;;;;;;;;;5074494;28;20269;-45
2021/08/20 10:37:05;;;;;;;4.93;3.03;;;;;;;;;;5090663;28;20182;-45
2021/08/20 10:39:32;;;;;;;5.55;3.63;;;;;;;;;;5094481;28;20204;-45
2021/08/20 10:42:04;;;;;;;5.43;3.35;;;;;;;;;;5088631;28;20181;-45
2021/08/20 10:44:34;;;;;;;5.05;3.05;;;;;;;;;;5076162;28;20456;-45
2021/08/20 10:47:00;;;;;;;4.20;3.30;;;;;;;;;;5090455;28;20178;-45
2021/08/20 10:49:26;;;;;;;3.63;3.33;;;;;;;;;;5094447;28;20496;-45
2021/08/20 10:51:52;;;;;;;3.20;2.85;;;;;;;;;;5081181;28;20642;-45
2021/08/20 10:54:22;;;;;;;3.75;3.08;;;;;;;;;;5093323;28;20189;-45
2021/08/20 10:56:48;;;;;;;3.53;3.22;;;;;;;;;;5086088;28;20182;-45
2021/08/20 10:59:33;;;;;;;5.10;3.25;;;;;;;;;;5074583;28;20264;-45
2021/08/20 11:02:17;;;;;;;3.78;3.15;;;;;;;;;;5083928;28;20195;-45
2021/08/20 11:04:59;;;;;;;4.30;3.72;;;;;;;;;;5094141;28;20182;-45
2021/08/20 11:07:37;;;;;;;3.13;2.85;;;;;;;;;;5084986;28;20178;-45
2021/08/20 11:10:09;;;;;;;4.28;3.05;;;;;;;;;;5093956;28;20292;-45
2021/08/20 11:12:38;;;;;;;3.50;3.20;;;;;;;;;;5077647;28;20170;-45
2021/08/20 11:15:19;;;;;;;3.25;2.95;;;;;;;;;;5092073;28;20188;-45
2021/08/20 11:17:50;;;;;;;5.32;2.85;;;;;;;;;;5094605;28;20209;-45
2021/08/20 11:20:19;;;;;;;3.53;3.00;;;;;;;;;;5097417;28;20166;-45
2021/08/20 11:22:46;;;;;;;4.47;2.75;;;;;;;;;;5097018;28;20178;-46
2021/08/20 11:25:15;;;;;;;3.97;2.80;;;;;;;;;;5097861;28;20173;-45
2021/08/20 11:27:53;;;;;;;3.95;2.90;;;;;;;;;;5096176;28;20185;-45
2021/08/20 11:30:20;;;;;;;3.15;2.67;;;;;;;;;;5087009;28;20301;-45
2021/08/20 11:32:46;;;;;;;6.05;3.00;;;;;;;;;;5093306;28;20177;-45
2021/08/20 11:35:12;;;;;;;2.75;2.55;;;;;;;;;;5093303;28;20166;-45
2021/08/20 11:37:51;;;;;;;3.28;2.67;;;;;;;;;;5075814;28;20193;-45
2021/08/20 11:40:17;;;;;;;3.72;2.90;;;;;;;;;;5086610;28;20174;-45
2021/08/20 11:43:03;;;;;;;3.08;2.72;;;;;;;;;;5081301;28;20281;-45
2021/08/20 11:45:29;;;;;;;3.47;3.17;;;;;;;;;;5082999;28;20853;-45
2021/08/20 11:47:58;;;;;;;3.58;2.88;;;;;;;;;;5076918;28;20194;-45
2021/08/20 11:50:25;;;;;;;3.50;2.92;;;;;;;;;;5087435;28;20190;-45
2021/08/20 11:52:51;;;;;;;3.97;3.10;;;;;;;;;;5097086;28;20180;-45
2021/08/20 11:55:18;;;;;;;4.70;3.30;;;;;;;;;;5097135;28;20162;-45
2021/08/20 11:57:44;;;;;;;3.53;2.70;;;;;;;;;;5078805;28;20558;-45
2021/08/20 12:00:10;;;;;;;3.85;3.15;;;;;;;;;;5085010;28;20194;-45
2021/08/20 12:02:36;;;;;;;2.70;2.50;;;;;;;;;;5081157;28;20445;-45
2021/08/20 12:05:31;;;;;;;3.70;2.78;;;;;;;;;;5078573;28;20541;-45
2021/08/20 12:07:57;;;;;;;3.58;3.00;;;;;;;;;;5078355;28;20618;-45
2021/08/20 12:10:23;;;;;;;4.30;2.60;;;;;;;;;;5096034;28;20213;-45
2021/08/20 12:12:49;;;;;;;3.33;3.03;;;;;;;;;;5096513;28;20231;-45
2021/08/20 12:15:16;;;;;;;4.45;2.78;;;;;;;;;;5095140;28;20169;-45
2021/08/20 12:17:42;;;;;;;3.03;2.60;;;;;;;;;;5076258;28;20609;-45
2021/08/20 12:20:22;;;;;;;3.20;2.90;;;;;;;;;;5065851;28;20182;-45
2021/08/20 12:22:50;;;;;;;2.60;2.40;;;;;;;;;;5096390;28;20215;-45
2021/08/20 12:25:24;;;;;;;2.83;2.63;;;;;;;;;;5095560;28;20437;-45
2021/08/20 12:27:50;;;;;;;2.97;2.72;;;;;;;;;;5075519;28;20182;-45
2021/08/20 12:30:17;;;;;;;3.40;2.65;;;;;;;;;;5085683;28;20210;-45
2021/08/20 12:32:45;;;;;;;3.42;2.60;;;;;;;;;;5079650;28;20516;-45
2021/08/20 12:35:21;;;;;;;3.25;2.75;;;;;;;;;;5076177;28;20194;-45
2021/08/20 12:38:02;;;;;;;4.25;2.85;;;;;;;;;;5095361;28;20178;-45
2021/08/20 12:40:37;;;;;;;3.00;2.78;;;;;;;;;;5095243;28;20177;-45
2021/08/20 12:43:04;;;;;;;3.35;2.65;;;;;;;;;;5078432;28;20580;-45
2021/08/20 12:45:30;;;;;;;2.72;2.45;;;;;;;;;;5084417;28;20255;-45
2021/08/20 12:48:01;;;;;;;2.92;2.72;;;;;;;;;;5095425;28;20192;-45
2021/08/20 12:50:27;;;;;;;2.38;2.13;;;;;;;;;;5095209;28;20205;-45
2021/08/20 12:53:03;;;;;;;3.58;2.50;;;;;;;;;;5096043;28;20170;-45
2021/08/20 12:55:33;;;;;;;2.60;2.40;;;;;;;;;;5094161;28;20227;-45
2021/08/20 12:58:00;;;;;;;2.90;2.70;;;;;;;;;;5088831;28;20216;-45
2021/08/20 13:00:26;;;;;;;2.53;2.30;;;;;;;;;;5067761;28;20190;-45
2021/08/20 13:02:53;;;;;;;3.22;2.65;;;;;;;;;;5093104;28;20228;-45
2021/08/20 13:05:19;;;;;;;2.33;2.13;;;;;;;;;;5095415;28;20211;-45
2021/08/20 13:07:45;;;;;;;2.78;2.58;;;;;;;;;;5094415;28;20273;-45
2021/08/20 13:10:11;;;;;;;2.92;2.50;;;;;;;;;;5094778;28;20292;-45
2021/08/20 13:12:37;;;;;;;2.50;2.30;;;;;;;;;;5095578;28;20166;-45
2021/08/20 13:15:04;;;;;;;5.78;2.50;;;;;;;;;;5093944;28;20192;-45
2021/08/20 13:17:30;;;;;;;2.88;2.40;;;;;;;;;;5074662;28;20572;-45
2021/08/20 13:19:56;;;;;;;2.60;2.40;;;;;;;;;;5092832;28;20182;-45
2021/08/20 13:22:22;;;;;;;3.20;2.70;;;;;;;;;;5095586;28;20166;-45
2021/08/20 13:24:48;;;;;;;3.40;2.65;;;;;;;;;;5094409;28;20181;-44
2021/08/20 13:27:14;;;;;;;2.55;2.35;;;;;;;;;;5093443;28;20319;-45
2021/08/20 13:29:40;;;;;;;4.32;2.72;;;;;;;;;;5090585;28;20194;-45
2021/08/20 13:32:06;;;;;;;2.65;2.45;;;;;;;;;;5083997;28;20315;-45
2021/08/20 13:34:33;;;;;;;2.85;2.50;;;;;;;;;;5074868;28;20249;-45
2021/08/20 13:36:59;;;;;;;3.13;2.90;;;;;;;;;;5089066;28;20174;-45
2021/08/20 13:39:25;;;;;;;4.00;3.17;;;;;;;;;;5082234;28;20182;-45
2021/08/20 13:41:51;;;;;;;3.33;3.03;;;;;;;;;;5088723;28;20261;-45
2021/08/20 13:44:17;;;;;;;3.92;3.53;;;;;;;;;;5090834;28;20516;-46
2021/08/20 13:46:43;;;;;;;4.50;2.75;;;;;;;;;;5077796;28;20170;-45
2021/08/20 13:49:14;;;;;;;3.17;2.97;;;;;;;;;;5094367;28;20200;-45
2021/08/20 13:51:40;;;;;;;2.80;2.60;;;;;;;;;;5077555;28;20171;-45
2021/08/20 13:54:06;;;;;;;3.10;2.80;;;;;;;;;;5084362;28;20890;-44
2021/08/20 13:56:32;;;;;;;2.78;2.45;;;;;;;;;;5082923;28;20304;-45
2021/08/20 13:58:59;;;;;;;3.63;2.75;;;;;;;;;;5074120;28;20186;-45
2021/08/20 14:01:25;;;;;;;3.03;2.72;;;;;;;;;;5075860;28;20174;-45
2021/08/20 14:03:51;;;;;;;3.22;2.80;;;;;;;;;;5087711;28;20833;-45
2021/08/20 14:06:17;;;;;;;3.38;2.65;;;;;;;;;;5074129;28;20177;-45
2021/08/20 14:08:43;;;;;;;3.05;2.78;;;;;;;;;;5093477;28;20178;-45
2021/08/20 14:11:09;;;;;;;2.40;2.20;;;;;;;;;;5084303;28;20210;-45
2021/08/20 14:13:35;;;;;;;2.60;2.40;;;;;;;;;;5075165;28;20174;-45
2021/08/20 14:16:01;;;;;;;2.95;2.65;;;;;;;;;;5085587;28;20192;-45
2021/08/20 14:18:27;;;;;;;3.53;2.70;;;;;;;;;;5086097;28;20190;-45
2021/08/20 14:20:53;;;;;;;2.92;2.33;;;;;;;;;;5074151;28;20181;-45
2021/08/20 14:23:19;;;;;;;2.65;2.45;;;;;;;;;;5082329;28;20204;-45
2021/08/20 14:25:46;;;;;;;2.90;2.70;;;;;;;;;;5091227;28;20173;-45
2021/08/20 14:28:12;;;;;;;2.83;2.63;;;;;;;;;;5073925;28;20517;-45
2021/08/20 14:30:38;;;;;;;4.22;2.85;;;;;;;;;;5092045;28;20209;-45
2021/08/20 14:33:04;;;;;;;3.00;2.75;;;;;;;;;;5085989;28;20193;-45
2021/08/20 14:35:30;;;;;;;3.97;2.97;;;;;;;;;;5083400;28;20195;-44
2021/08/20 14:37:56;;;;;;;3.55;2.60;;;;;;;;;;5073669;28;20210;-45
2021/08/20 14:40:23;;;;;;;2.85;2.65;;;;;;;;;;5074155;28;20181;-45